Latest Weather Observations for Yunta

IDS60801

Issued at 4:51 pm CST Saturday 22 September 2018 (issued every 10 minutes, with the page automatically refreshed every 10 minutes)

About weather observations | Map of weather stations | Latest weather observations for SA | Other Formats
Station Details ID: 020062 Name: YUNTA AIRSTRIP Lat: -32.57 Lon: 139.56 Height: 300.0 m
Data from the previous 72 hours. | See also: Recent months at Yunta
Date/Time
CST
Temp
°C
App
Temp
°C
Dew
Point
°C
Rel
Hum
%
Delta-T
°C
Wind Press
QNH
hPa
Press
MSL
hPa
Rain since
9am
mm
Dir  Spd
km/h
Gust
km/h
Spd
kts
Gust
kts
22/04:30pm 26.6 21.6 -4.0 13 13.4 S 13 19 7 10 1024.0 1023.8 0.0
22/04:00pm 26.8 22.6 -3.9 13 13.5 W 9 17 5 9 1024.0 1023.8 0.0
22/03:30pm 27.0 22.1 -3.7 13 13.6 SW 13 24 7 13 1024.0 1023.8 0.0
22/03:00pm 26.9 23.4 -2.8 14 13.3 WSW 6 15 3 8 1024.2 1024.0 0.0
22/02:30pm 25.8 21.4 -2.8 15 12.7 W 11 20 6 11 1024.6 1024.4 0.0
22/02:00pm 25.8 21.7 -2.8 15 12.8 WSW 9 19 5 10 1025.1 1024.9 0.0
22/01:30pm 25.9 20.6 -3.6 14 12.9 WNW 15 26 8 14 1025.3 1025.1 0.0
22/01:00pm 24.9 20.5 -2.6 16 12.2 WSW 11 22 6 12 1025.9 1025.7 0.0
22/12:30pm 25.1 20.8 -1.6 17 12.0 NW 11 19 6 10 1026.5 1026.2 0.0
22/12:00pm 24.8 21.4 -0.4 19 11.6 WSW 7 15 4 8 1027.0 1026.8 0.0
22/11:30am 24.1 19.1 -0.9 19 11.3 W 15 22 8 12 1027.3 1027.1 0.0
22/11:00am 24.1 20.8 0.4 21 11.1 WNW 7 13 4 7 1027.7 1027.5 0.0
22/10:30am 23.0 19.8 0.8 23 10.3 NNE 7 13 4 7 1027.9 1027.7 0.0
22/10:00am 22.0 18.4 0.5 24 9.9 N 9 17 5 9 1028.3 1028.1 0.0
22/09:30am 21.6 18.0 0.8 25 9.5 NNW 9 19 5 10 1028.4 1028.2 0.0
22/09:00am 19.6 17.0 1.1 29 8.4 NW 4 9 2 5 1028.7 1028.5 0.0
22/08:30am 17.3 15.9 3.6 40 6.4 CALM 0 0 0 0 1028.7 1028.5 0.0
22/08:00am 15.2 13.7 3.0 44 5.6 CALM 0 0 0 0 1028.6 1028.4 0.0
22/07:30am 12.4 10.8 2.3 50 4.4 CALM 0 0 0 0 1028.3 1028.1 0.0
22/07:00am 8.5 6.5 -0.3 54 3.5 CALM 0 2 0 1 1028.1 1027.9 0.0
22/06:30am 5.9 3.5 -3.4 51 3.3 CALM 0 2 0 1 1027.7 1027.5 0.0
22/06:00am 6.4 2.8 -2.2 54 3.2 NNW 7 9 4 5 1027.2 1027.0 0.0
22/05:30am 5.6 1.9 -3.0 54 3.1 N 7 9 4 5 1027.1 1026.9 0.0
22/05:00am 7.2 3.8 -1.7 53 3.4 N 6 6 3 3 1026.9 1026.7 0.0
22/04:30am 7.6 4.2 -0.8 55 3.3 NNW 7 9 4 5 1026.9 1026.7 0.0
22/04:00am 8.2 6.1 -0.8 53 3.5 CALM 0 0 0 0 1026.7 1026.5 0.0
22/03:30am 8.4 6.4 -0.1 55 3.4 CALM 0 0 0 0 1026.5 1026.2 0.0
22/03:00am 9.0 5.2 -0.9 50 3.9 WSW 9 11 5 6 1026.2 1025.9 0.0
22/02:30am 9.4 6.7 -2.2 44 4.4 WSW 2 4 1 2 1026.4 1026.1 0.0
22/02:00am 10.2 8.0 -1.8 43 4.7 CALM 0 0 0 0 1026.5 1026.2 0.0
22/01:30am 11.5 8.5 -1.6 40 5.2 N 4 9 2 5 1026.8 1026.6 0.0
22/01:00am 11.0 8.8 -1.4 42 5.0 CALM 0 0 0 0 1026.9 1026.7 0.0
22/12:30am 12.6 10.5 -1.0 39 5.5 CALM 0 0 0 0 1027.0 1026.8 0.0
22/12:00am 12.3 8.3 -2.0 37 5.7 WNW 9 11 5 6 1027.0 1026.8 0.0
 
Date/Time
CST
Temp
°C
App
Temp
°C
Dew
Point
°C
Rel
Hum
%
Delta-T
°C
Wind Press
QNH
hPa
Press
MSL
hPa
Rain since
9am
mm
Dir  Spd
km/h
Gust
km/h
Spd
kts
Gust
kts
21/11:30pm 13.9 10.0 -1.3 35 6.2 WNW 9 13 5 7 1027.1 1026.9 0.0
21/11:00pm 15.1 11.6 -1.0 33 6.8 SW 7 11 4 6 1027.0 1026.8 0.0
21/10:30pm 15.9 11.7 -0.8 32 7.1 WNW 11 17 6 9 1027.0 1026.8 0.0
21/10:00pm 16.7 12.2 -0.5 31 7.4 N 13 15 7 8 1026.7 1026.5 0.0
21/09:30pm 17.0 12.4 -0.7 30 7.6 NNW 13 15 7 8 1026.5 1026.2 0.0
21/09:00pm 17.0 13.2 -0.7 30 7.6 NNW 9 13 5 7 1026.4 1026.1 0.0
21/08:30pm 17.1 12.9 -0.6 30 7.6 N 11 13 6 7 1026.4 1026.1 0.0
21/08:00pm 17.6 13.8 -0.6 29 7.9 N 9 11 5 6 1026.2 1025.9 0.0
21/07:30pm 17.0 13.2 -1.1 29 7.7 N 9 11 5 6 1025.8 1025.6 0.0
21/07:00pm 17.5 14.1 -1.7 27 8.1 N 6 7 3 4 1025.5 1025.3 0.0
21/06:30pm 19.4 16.0 -0.6 26 8.8 N 7 9 4 5 1025.2 1025.0 0.0
21/06:00pm 20.5 17.7 -0.7 24 9.4 N 4 6 2 3 1025.1 1024.9 0.0
21/05:30pm 21.6 18.3 0.2 24 9.7 N 7 9 4 5 1024.9 1024.7 0.0
21/05:00pm 22.0 18.3 -0.1 23 10.1 N 9 15 5 8 1024.7 1024.5 0.0
21/04:30pm 22.3 19.0 0.2 23 10.1 N 7 13 4 7 1024.6 1024.4 0.0
21/04:00pm 22.8 20.1 0.6 23 10.3 NNW 4 11 2 6 1024.5 1024.3 0.0
21/03:30pm 23.3 20.0 0.4 22 10.6 N 7 20 4 11 1024.6 1024.4 0.0
21/03:00pm 22.9 19.0 1.3 24 10.1 NNW 11 20 6 11 1024.8 1024.6 0.0
21/02:30pm 22.9 19.8 1.3 24 10.1 NNW 7 15 4 8 1025.0 1024.8 0.0
21/02:00pm 22.4 19.4 0.9 24 10.0 NE 6 13 3 7 1025.4 1025.2 0.0
21/01:30pm 22.2 17.9 1.3 25 9.7 NNW 13 20 7 11 1026.1 1025.8 0.0
21/01:00pm 21.9 18.5 1.6 26 9.5 NNW 9 19 5 10 1026.4 1026.1 0.0
21/12:30pm 21.2 17.0 1.5 27 9.1 N 13 24 7 13 1027.0 1026.8 0.0
21/12:00pm 20.8 17.4 1.6 28 8.9 N 9 20 5 11 1027.4 1027.2 0.0
21/11:30am 20.5 16.3 1.9 29 8.6 NNW 13 26 7 14 1028.0 1027.8 0.0
21/11:00am 19.4 16.0 1.9 31 8.1 NNW 9 19 5 10 1028.2 1028.0 0.0
21/10:30am 18.8 14.3 2.2 33 7.7 NNW 15 20 8 11 1028.4 1028.2 0.0
21/10:00am 18.3 15.3 1.8 33 7.6 NW 7 13 4 7 1028.7 1028.5 0.0
21/09:30am 16.6 14.4 5.3 47 5.5 ENE 6 15 3 8 1028.9 1028.7 0.0
21/09:00am 14.4 12.2 5.5 55 4.2 ENE 6 13 3 7 1028.7 1028.5 0.0
21/08:30am 12.6 11.5 5.3 61 3.4 CALM 0 0 0 0 1028.7 1028.5 0.0
21/08:00am 10.8 9.7 4.9 67 2.7 CALM 0 0 0 0 1028.7 1028.5 0.0
21/07:30am 9.4 8.2 4.6 72 2.2 CALM 0 0 0 0 1028.5 1028.3 0.0
21/07:00am 7.0 5.5 2.9 75 1.7 CALM 0 0 0 0 1028.2 1028.0 0.0
21/06:30am 4.2 2.3 0.5 77 1.4 CALM 0 2 0 1 1027.7 1027.5 0.0
21/06:00am 4.5 1.0 1.2 79 1.3 WSW 9 9 5 5 1027.2 1027.0 0.0
21/05:30am 4.3 0.8 1.0 79 1.3 SW 9 9 5 5 1026.8 1026.6 0.0
21/05:00am 4.0 0.7 0.2 76 1.5 SW 7 9 4 5 1026.5 1026.2 0.0
21/04:30am 3.9 0.5 -0.5 73 1.7 WSW 7 7 4 4 1026.3 1026.0 0.0
21/04:00am 4.2 1.0 -0.4 72 1.8 SW 6 7 3 4 1025.9 1025.7 0.0
21/03:30am 5.9 3.4 1.8 75 1.7 SSW 4 4 2 2 1025.8 1025.6 0.0
21/03:00am 6.3 4.7 2.2 75 1.7 CALM 0 4 0 2 1025.8 1025.6 0.0
21/02:30am 4.9 2.8 -0.5 68 2.1 CALM 0 0 0 0 1025.9 1025.7 0.0
21/02:00am 4.7 2.6 -1.1 66 2.2 CALM 0 0 0 0 1026.1 1025.8 0.0
21/01:30am 5.3 3.1 -1.4 62 2.5 CALM 0 0 0 0 1026.3 1026.0 0.0
21/01:00am 6.1 4.2 0.4 67 2.3 CALM 0 0 0 0 1026.5 1026.2 0.0
21/12:30am 5.9 3.8 -0.8 62 2.6 CALM 0 0 0 0 1026.6 1026.4 0.0
21/12:00am 6.8 4.6 1.1 67 2.3 SSE 2 4 1 2 1026.7 1026.5 0.0
 
Date/Time
CST
Temp
°C
App
Temp
°C
Dew
Point
°C
Rel
Hum
%
Delta-T
°C
Wind Press
QNH
hPa
Press
MSL
hPa
Rain since
9am
mm
Dir  Spd
km/h
Gust
km/h
Spd
kts
Gust
kts
20/11:30pm 7.9 6.2 2.0 66 2.5 CALM 0 0 0 0 1026.8 1026.6 0.0
20/11:00pm 8.8 6.5 2.8 66 2.6 W 4 4 2 2 1027.0 1026.8 0.0
20/10:30pm 9.8 7.6 3.3 64 2.8 SW 4 6 2 3 1026.6 1026.4 0.0
20/10:00pm 10.4 7.6 3.0 60 3.3 SW 7 9 4 5 1026.5 1026.2 0.0
20/09:30pm 11.6 8.5 3.4 57 3.7 SSW 9 9 5 5 1026.4 1026.1 0.0
20/09:00pm 12.2 9.0 2.9 53 4.1 SW 9 17 5 9 1026.1 1025.8 0.0
20/08:30pm 11.9 9.1 2.1 51 4.3 SW 6 11 3 6 1025.7 1025.5 0.0
20/08:00pm 14.1 11.4 3.6 49 4.8 S 7 9 4 5 1025.3 1025.1 0.0
20/07:30pm 15.4 12.4 3.9 46 5.4 S 9 13 5 7 1024.8 1024.6 0.0
20/07:00pm 16.3 12.5 4.0 44 5.8 S 13 17 7 9 1024.3 1024.1 0.0
20/06:30pm 16.9 13.2 2.5 38 6.6 S 11 17 6 9 1023.8 1023.6 0.0
20/06:00pm 17.9 13.3 1.8 34 7.3 S 15 22 8 12 1023.4 1023.1 0.0
20/05:30pm 18.9 14.0 2.3 33 7.7 SSW 17 22 9 12 1022.9 1022.6 0.0
20/05:00pm 19.4 14.9 2.3 32 8.0 S 15 22 8 12 1022.7 1022.4 0.0
20/04:30pm 19.6 15.4 1.6 30 8.3 S 13 20 7 11 1022.5 1022.2 0.0
20/04:00pm 19.9 15.4 2.3 31 8.3 SSW 15 26 8 14 1022.1 1021.9 0.0
20/03:30pm 20.0 15.2 2.4 31 8.3 S 17 22 9 12 1022.1 1021.9 0.0
20/03:00pm 20.4 15.5 1.8 29 8.6 SSW 17 30 9 16 1022.2 1022.0 0.0
20/02:30pm 20.5 16.4 2.3 30 8.5 SW 13 24 7 13 1022.3 1022.1 0.0
20/02:00pm 19.3 15.6 2.2 32 8.0 WSW 11 33 6 18 1022.7 1022.4 0.0
20/01:30pm 18.7 14.5 1.7 32 7.8 WSW 13 26 7 14 1022.9 1022.6 0.0
20/01:00pm 18.9 14.0 2.3 33 7.7 SW 17 28 9 15 1023.1 1022.8 0.0
20/12:30pm 18.3 14.7 3.0 36 7.2 WSW 11 17 6 9 1023.4 1023.1 0.0
20/12:00pm 17.4 13.7 2.6 37 6.8 WNW 11 20 6 11 1023.8 1023.6 0.0
20/11:30am 16.4 13.4 2.1 38 6.5 S 7 13 4 7 1023.9 1023.7 0.0
20/11:00am 16.1 12.5 3.2 42 6.0 SW 11 22 6 12 1024.2 1024.0 0.0
20/10:30am 15.2 11.4 4.0 47 5.2 SW 13 20 7 11 1024.5 1024.3 0.0
20/10:00am 14.9 10.5 4.9 51 4.8 SW 17 24 9 13 1024.8 1024.6 0.0
20/09:30am 14.2 10.2 5.0 54 4.3 SSW 15 22 8 12 1024.7 1024.5 0.0
20/09:00am 12.9 8.8 4.6 57 3.8 SW 15 22 8 12 1024.5 1024.3 0.0
20/08:30am 12.2 7.8 4.9 61 3.4 SW 17 24 9 13 1024.3 1024.1 0.0
20/08:00am 11.0 7.5 5.3 68 2.7 WSW 13 17 7 9 1024.1 1023.9 0.0
20/07:30am 9.5 6.3 4.9 73 2.1 W 11 15 6 8 1023.7 1023.5 0.0
20/07:00am 4.9 2.8 -0.9 66 2.2 CALM 0 0 0 0 1023.4 1023.1 0.0
20/06:30am 1.3 -1.1 -3.4 71 1.7 CALM 0 0 0 0 1023.0 1022.7 0.0
20/06:00am 0.8 -1.7 -3.8 71 1.6 CALM 0 0 0 0 1022.6 1022.3 0.0
20/05:30am 1.0 -1.4 -3.5 72 1.6 CALM 0 0 0 0 1022.1 1021.9 0.0
20/05:00am 0.9 -1.6 -3.7 71 1.6 CALM 0 4 0 2 1021.8 1021.6 0.0
20/04:30am 1.6 -0.9 -3.7 68 1.9 CALM 0 0 0 0 1021.8 1021.6 0.0
20/04:00am 1.1 -1.4 -4.1 68 1.8 CALM 0 0 0 0 1021.5 1021.3 0.0
20/03:30am 1.3 -1.2 -4.1 67 1.9 CALM 0 0 0 0 1021.3 1021.1 0.0
20/03:00am 1.6 -1.0 -4.7 63 2.2 CALM 0 0 0 0 1021.3 1021.1 0.0
20/02:30am 1.9 -0.6 -3.8 66 2.0 CALM 0 0 0 0 1021.4 1021.2 0.0
20/02:00am 3.0 0.8 -1.9 70 1.8 CALM 0 0 0 0 1021.3 1021.1 0.0
20/01:30am 3.3 0.6 -2.4 66 2.0 N 2 2 1 1 1021.6 1021.4 0.0
20/01:00am 2.6 0.1 -3.9 62 2.2 CALM 0 0 0 0 1021.7 1021.5 0.0
20/12:30am 4.3 2.1 -1.9 64 2.3 CALM 0 0 0 0 1021.7 1021.5 0.0
20/12:00am 4.1 0.6 -2.5 62 2.4 WNW 6 7 3 4 1021.7 1021.5 0.0
 
Date/Time
CST
Temp
°C
App
Temp
°C
Dew
Point
°C
Rel
Hum
%
Delta-T
°C
Wind Press
QNH
hPa
Press
MSL
hPa
Rain since
9am
mm
Dir  Spd
km/h
Gust
km/h
Spd
kts
Gust
kts
19/11:30pm 4.5 1.4 -2.6 60 2.5 NW 4 6 2 3 1021.6 1021.4 0.0
19/11:00pm 5.5 2.1 -2.3 57 2.9 WNW 6 7 3 4 1021.7 1021.5 0.0
19/10:30pm 6.5 3.2 -1.4 57 3.0 W 6 6 3 3 1021.5 1021.3 0.0
19/10:00pm 7.0 4.2 -0.7 58 3.0 ENE 4 6 2 3 1021.6 1021.4 0.0
19/09:30pm 8.2 4.1 -0.5 54 3.4 WSW 11 13 6 7 1021.2 1021.0 0.0
19/09:00pm 8.3 4.8 -1.2 51 3.7 WSW 7 7 4 4 1021.0 1020.8 0.0
19/08:30pm 9.0 5.5 -1.4 48 4.1 SW 7 9 4 5 1020.8 1020.6 0.0
19/08:00pm 9.9 5.7 -1.2 46 4.4 SW 11 13 6 7 1020.6 1020.3 0.0
19/07:30pm 11.3 7.1 -0.8 43 4.9 SW 11 15 6 8 1020.2 1019.9 0.0
19/07:00pm 12.5 6.6 -0.7 40 5.5 SW 20 28 11 15 1019.7 1019.4 0.0
19/06:30pm 12.9 6.5 -1.4 37 5.8 SW 22 30 12 16 1019.4 1019.1 0.0
19/06:00pm 13.6 6.7 -2.8 32 6.5 SW 24 32 13 17 1019.2 1018.9 0.0
19/05:30pm 14.4 6.7 -2.9 30 6.9 SW 28 37 15 20 1018.7 1018.5 0.0
19/05:00pm 15.2 7.6 -2.2 30 7.1 SW 28 39 15 21 1018.3 1018.1 0.0

Other Formats:

Comma delimited format used in spreadsheet applications
http://www.bom.gov.au/fwo/IDS60801/IDS60801.94684.axf

JavaScript Object Notation format (JSON) in row-major order
http://www.bom.gov.au/fwo/IDS60801/IDS60801.94684.json